Create Custom Reports and Graphics: Custom Report

North/Central Map

Map

15 Minute Data

South County Map

Map

15 Minute Data

Northern Sonoma County Latest

25 Stations

15 Minute Data | America/Los_Angeles
as of 5/2/26 5:16 PM PDT
Station Date Time Temp (°F) RH (%) Dew Pt (°F) Wind Spd (mph) Wind Dir (°) Wind Gust (mph) Latest Rain (In) Daily Rain (In) Daily Max Temp (°F) Daily Min Temp (°F)
Bavarian Lion EFW 5/2/26 1715 62.7   14.0 - - - - - 0.00 0.00 68.8   10.5 51.7   6.2
Rockpile Lower (Cooley) 5/2/26 1700 61.2   15.9 69   17 50.8   6.9 7.1   2.7 SE | 125 12.0   2.9 0.00 0.00 66.5   13.1 48.5   2.1
Rockpile Upper (Cooley) 5/2/26 1715 60.6   13.7 71   13 51.0   7.3 5.9   0.6 SE | 131 14.5   3.7 0.00 0.00 66.1   9.9 46.1   6.4
Lower Dry Creek Valley 5/2/26 1715 64.2   10.2 62   19 51.1   0.2 6.6   1.1 SE | 139 13.4   2.2 0.00 0.00 64.6   12.8 52.4   4.2
Geyserville-South (Nervo Station) 5/2/26 1715 61.7   12.3 - - 6.3   0.5 S | 177 11.8   1.7 0.00 0.00 63.5   13.8 51.3   3.3
Franz Valley (Stornetta) 5/2/26 1715 61.5   13.0 69   17 51.1   4.6 3.1   0.5 SSW | 203 9.0   1.1 0.00 0.00 66.6   11.5 49.1   7.1
Geyserville (Ranch 3) 5/2/26 1715 64.6   12.3 63   16 51.9   3.2 5.4   0.4 SSE | 148 10.7   0.4 0.00 0.00 65.9   12.4 52.6   3.4
Geyserville-North (Hoffman) 5/2/26 1715 65.1   12.5 66   16 53.5   4.0 6.5   0.5 S | 174 12.0   0.7 0.00 0.00 66.8   12.9 52.8   6.1
Knights Valley (Bavarian Lion) 5/2/26 1700 62.4   12.7 68   15 51.6   4.8 5.3   0.9 SSW | 211 8.6   1.1 0.00 0.00 66.7   11.0 50.7   5.5
HWY 128/Chalk Hill Rd (Landslide) 5/2/26 1700 62.2   12.3 70   17 52.1   3.9 6.3   0.5 SSW | 206 10.8   0.1 0.00 0.00 65.2   12.5 52.3   4.6
Newman Knights Valley 5/2/26 1715 62.4   11.7 74   8 53.9   8.0 7.8   1.0 SW | 230 12.3   1.7 0.00 0.00 64.7   11.5 52.1   6.0
Jimtown-North (Piccolo Ranch 15) 5/2/26 1715 62.5   14.9 66   21 50.9   3.5 5.6   3.8 S | 189 11.2   3.1 0.00 0.00 65.9   13.0 52.0   4.6
Peterson (Ranch 09) 5/2/26 1715 61.7   13.0 66   19 50.4   3.2 7.7   1.2 SSE | 166 12.5   2.2 0.00 0.00 63.8   13.3 51.2   2.4
Cloverdale-SE (Ranch 38) 5/2/26 1715 62.1   14.8 73   21 53.5   4.7 13.2   1.9 SSE | 162 19.0   2.2 0.00 0.00 65.9   12.2 50.2   2.0
Geyserville-East (Ranch 40) 5/2/26 1715 60.2   14.2 77   20 52.9   5.2 13.5   2.8 SSW | 195 19.2   3.0 0.00 0.01 62.2   14.4 50.1   2.8
N Chalk Hill Rd (Ranch 63) 5/2/26 1715 61.3   13.0 68   17 50.6   4.4 6.0   0.4 S | 181 11.1   1.1 0.00 0.00 64.6   12.6 50.1   4.1
Cloverdale-East (Ranch 83) 5/2/26 1715 64.7   14.6 - - 7.3   1.0 SSE | 164 15.2   2.5 0.00 0.00 68.4   12.1 51.2   3.9
Crazy Creek Ranch 5/2/26 1715 62.7   14.0 72   18 53.6   5.2 5.1   0.3 SSE | 166 11.1   2.3 0.00 0.00 65.1   13.2 52.2   4.0
Lytton East (Hill 5) 5/2/26 1715 62.2   10.0 68   19 51.5   0.4 8.8   1.1 S | 170 14.3   0.4 0.00 0.00 62.9   12.8 51.0   2.7
Lytton East (Shop Hill Bottom) 5/2/26 1715 62.3   10.7 66   19 50.9   0.8 8.1   0.3 SSE | 159 13.2   1.4 0.00 0.00 63.4   13.3 51.2   2.5
Lytton West Hill (23PS) 5/2/26 1715 62.8   10.8 65   20 50.8   0.1 5.9   1.6 SE | 140 10.8   3.4 0.00 0.00 64.0   13.2 51.7   2.6
Lytton West Lower (Lew 6) 5/2/26 1715 62.9   11.0 65   19 51.0   0.9 7.3   0.4 SSE | 164 12.1   1.1 0.00 0.00 64.0   12.7 51.5   4.3
Whitton Ranch (201e) 5/2/26 1715 63.7   12.1 65   18 51.6   2.3 5.4   0.2 S | 181 10.6   0.9 0.00 0.00 65.3   13.5 51.7   7.4
Upper Dry Creek Valley 5/2/26 1630 63.9   14.1 65   18 52.0   4.4 6.3   0.5 SE | 136 12.5   2.3 0.00 0.00 66.0   12.8 52.0   5.1
Big River 5/2/26 1715 60.5   12.5 73   21 51.8   2.6 7.4   0.8 S | 176 13.4   0.0 0.00 0.00 63.4   12.7 51.8   2.8
Max     65.1 77 53.9 13.5 - 19.2 0.00 0.01 68.8 52.8
Avg     62.5 68 51.8 7.0 - 12.6 0.00 - - -
Min     60.2 62 50.4 3.1 - 8.6 0.00 0.00 62.2 46.1

Central Sonoma County Latest

37 Stations

15 Minute Data
as of 5/2/26 5:16 PM PDT
Station Date Time Temp (°F) RH (%) Dew Pt (°F) Wind Spd (mph) Wind Dir (°) Wind Gust (mph) Latest Rain (In) Daily Rain (In) Daily Max Temp (°F) Daily Min Temp (°F)
Windsor-NW (Ranch 8) 5/2/26 1715 63.0   10.0 70   15 53.2   2.8 3.7   0.3 SSE | 153 9.5   0.2 0.00 0.00 63.8   12.1 52.2   2.1
Windsor-East (Ranch 16) 5/2/26 1715 59.2   11.9 71   18 49.8   3.4 5.3   1.3 S | 180 9.8   1.5 0.00 0.00 62.1   13.6 52.3   4.3
Mark West-North (Ranch 14) 5/2/26 1715 58.5   11.6 71   16 49.0   4.2 4.4   0.4 S | 173 8.3   1.8 0.00 0.00 61.4   12.9 52.6   2.0
Windsor-SE (Silk Rd) 5/2/26 1715 61.3   9.7 67   14 50.3   2.9 3.5   1.7 SSE | 163 8.9   1.1 0.00 0.00 62.4   12.2 52.3   3.4
Fulton-NW (Ranch 5) 5/2/26 1715 59.1   11.4 71   14 49.8   4.9 5.2   0.6 SSE | 166 10.5   0.9 0.00 0.00 62.0   12.6 52.6   2.7
Bisordi (Fulton) 5/2/26 1715 58.4   12.1 76   12 50.9   6.8 5.2   2.0 SSW | 199 9.3   0.9 0.00 0.00 61.4   13.1 52.9   3.0
Windsor-South (Laughlin Rd) 2/28/26 0515 55.4   5.1 92   7 53.2   3.1 - - - 0.00 0.00 61.9   7.4 55.2   5.6
Fulton-SE (Barnes Rd) 5/2/26 1715 58.4   10.6 71   12 49.2   5.0 4.8   4.8 SSW | 200 10.0   10.0 0.00 0.00 61.2   13.1 52.9   1.3
Fulton-SW (Ranch 21) 5/2/26 1715 58.4   10.5 72   14 49.4   4.2 7.1   0.5 S | 191 11.8   0.3 0.00 0.00 61.3   11.8 52.1   2.0
NW Santa Rosa (Piner Road) 5/2/26 1715 58.1   9.6 81   14 52.3   4.2 5.2   1.7 SSW | 198 10.6   2.1 0.00 0.00 60.4   12.6 52.2   1.2
River Rd South (Denner Ranch) 5/2/26 1715 60.3   7.6 68   8 49.8   3.9 7.9   2.6 SSE | 158 12.5   3.3 - - 61.8   10.9 51.4   2.1
West Santa Rosa (LOV Vineyard) 5/2/26 1715 58.8   9.2 71   11 49.4   4.2 5.4   0.0 S | 189 10.0   0.2 0.00 0.00 61.1   10.9 52.2   1.5
Guerneville Rd (Prokopakis) 5/2/26 1715 65.1   8.3 60   7 50.7   4.1 - - - 0.00 0.00 66.9   10.9 52.8   1.8
SunnyView Vineyard (SCWC) 5/2/26 1715 58.6   9.3 70   10 49.0   4.6 3.6   0.7 S | 186 8.1   0.3 0.00 0.00 61.6   11.4 52.0   1.6
Guerneville Rd West (Balletto) 5/2/26 1715 59.6   8.0 74   7 51.2   4.9 5.9   0.4 SSW | 193 11.6   1.7 0.00 0.00 61.0   11.1 52.5   1.9
Sanchietti Ranch 5/2/26 1715 59.8   8.0 76   7 52.3   5.0 5.6   0.2 SW | 219 11.5   2.3 0.00 0.00 62.7   11.1 53.5   1.9
Occidental Rd (Sebastopol) 5/2/26 1715 58.8   8.0 100   6 58.8   6.1 6.9   1.0 SSW | 195 13.2   3.1 0.00 0.00 61.6   10.7 51.8   2.9
Harper's Rest (Windsor-West) 5/2/26 1715 62.4   11.4 64   12 49.9   4.8 4.9   0.6 E | 93 8.9   0.1 0.00 0.00 62.6   13.1 50.6   4.1
Lower Westside Rd (Ranch 12) 5/2/26 1715 62.6   11.8 64   15 50.2   3.9 4.3   0.4 SE | 132 8.2   1.1 0.00 0.00 64.3   12.1 52.0   3.5
Guerneville (Laughlin Rd) 5/2/26 1715 62.8   7.8 62   9 49.8   3.0 5.3   1.2 S | 172 10.5   1.5 0.00 0.00 64.2   12.1 52.4   4.4
Korbel (Winery) 5/2/26 1715 59.2   12.3 72   23 50.1   0.9 4.2   3.1 WSW | 239 10.2   0.1 0.00 0.00 62.9   14.2 52.5   2.2
Forestville (Shone Farms) 5/2/26 1715 61.6   11.4 67   15 50.5   3.9 4.2   0.3 SE | 125 9.0   0.0 0.00 0.00 63.8   12.7 50.6   1.8
Forestville-NE (Ranch 30) 5/2/26 1715 61.2   12.1 71   15 51.6   4.9 5.8   1.3 SSE | 161 9.6   2.2 0.00 0.00 64.1   11.1 51.4   3.0
Foggy Bend (Ranch 41) 5/2/26 1715 62.6   11.3 69   12 52.4   5.5 3.8   1.5 SSE | 167 9.4   0.1 0.00 0.00 64.4   10.7 52.6   2.6
Last Stop 5/2/26 1715 62.3   10.6 70   8 52.5   6.8 5.2   0.1 SE | 141 9.1   1.6 0.00 0.00 63.2   11.1 51.6   5.5
Green Valley Vineyard 5/2/26 1715 60.9   11.4 68   13 50.2   5.0 4.5   0.2 SW | 219 9.2   1.1 0.00 0.00 61.8   11.1 50.6   2.7
Park Royal 5/2/26 1715 58.7   8.6 69   9 48.7   4.4 - - - 0.00 0.00 61.4   12.3 52.5   1.2
Merino 5/2/26 1715 58.5   8.0 78   8 51.7   4.6 5.9   0.9 SSW | 192 11.3   2.8 0.00 0.00 61.6   11.1 52.4   1.9
Green Valley (Sanchietti) 5/2/26 1715 62.0   11.0 - - - - - - - 64.5   10.6 52.1   5.6
Keefer Ranch (Green Valley) 5/2/26 1715 60.5   10.2 71   10 51.0   5.3 - - - 0.00 0.00 62.7   9.9 52.0   5.3
Graton-West (Dutton Ranch) 5/2/26 1715 59.6   10.8 98   32 59.2   0.4 4.7   0.1 S | 172 9.1   0.2 0.00 0.00 62.7   11.3 52.0   3.6
Graton-South (Mill Station Rd) 5/2/26 1715 58.0   6.4 73   4 49.4   4.6 3.4   0.1 SSW | 210 7.3   0.4 0.00 0.00 59.9   8.9 51.6   6.5
Occidental (Horseshoe Bend) 5/2/26 1715 55.2   9.8 79   11 48.9   5.4 - - - 0.00 0.01 57.7   9.8 49.5   2.3
Sexton Valley (Jacqueline's Blk) 5/2/26 1715 58.1   6.0 76   2 50.7   5.1 2.4   0.1 SW | 218 7.7   1.0 0.00 0.00 60.2   8.5 51.9   6.3
Sebastopol Hills (Burnside Rd) 5/2/26 1715 55.2   6.7 83   5 50.2   5.0 4.8   1.7 W | 259 10.7   0.1 0.00 0.00 57.1   7.6 50.3   1.4
Pleasant Hill 5/2/26 1715 56.1   7.8 77   10 48.9   3.8 5.4   0.2 SSW | 207 10.7   0.4 0.00 0.00 58.9   11.5 50.7   5.5
Seaview/Fort Ross (Hirsch) 5/2/26 1715 50.5   14.5 92   35 48.2   1.1 2.6   0.2 WSW | 252 7.5   1.6 0.00 0.00 57.6   8.9 46.6   5.0
Max     65.1 100 59.2 7.9 - 13.2 0.00 0.01 66.9 53.5
Avg     59.5 73 50.8 4.9 - 9.8 0.00 - - -
Min     50.5 60 48.2 2.4 - 7.3 0.00 0.00 57.1 46.6

Southern Sonoma County Latest

20 Stations

15 Minute Data
as of 5/2/26 5:16 PM PDT
Station Date Time Temp (°F) RH (%) Dew Pt (°F) Wind Spd (mph) Wind Dir (°) Wind Gust (mph) Latest Rain (In) Daily Rain (In) Daily Min Temp (°F) Daily Max Temp (°F)
Upper Rincon Valley 5/2/26 1715 55.3   11.1 78   16 48.6   4.3 3.3   0.3 SSW | 211 7.7   1.7 0.00 0.00 47.7   2.6 60.1   11.6
Lower Bennett Valley 5/2/26 1715 57.4   8.9 75   7 49.6   6.0 4.5   0.6 N | 354 10.4   1.4 0.00 0.00 50.5   3.0 62.0   12.6
Kenwood (Wildwood) 5/2/26 1715 59.4   10.7 71   8 50.0   6.8 6.5   2.6 NNW | 329 12.8   3.8 0.00 0.00 50.1   5.4 68.4   7.8
Crane Creek (Ranch 62) 5/2/26 1715 57.7   8.9 72   10 48.8   4.6 2.2   0.9 SW | 224 7.8   0.1 0.00 0.00 51.6   1.8 61.0   14.0
Rohnert Park-West (Stony Point) 5/2/26 1715 56.3   6.2 79   4 49.8   4.7 4.8   2.2 SW | 232 9.6   3.7 0.00 0.00 52.2   1.5 60.2   8.3
Rice-Spivak Vineyard 5/2/26 1715 56.4   6.0 - - - - - - - 51.7   1.9 62.5   6.8
Cartograph Wines Base 5/2/26 1715 55.0   4.5 84   0 50.2   4.3 4.5   5.3 SSW | 213 9.4   8.2 0.00 0.00 51.2   1.3 58.3   7.6
Cartograph Wines Remote 5/2/26 1715 56.3   6.8 - - - - - - - 52.1   1.6 60.4   6.8
Penngrove (Asellus) 5/2/26 1715 57.5   5.3 73   3 48.8   4.0 4.8   0.8 WSW | 254 10.4   0.9 0.00 0.00 52.2   2.0 60.7   12.6
Sonoma Valley (Bedrock) 5/2/26 1700 62.7   7.0 63   1 50.2   6.2 - - - 0.00 0.00 45.8   4.0 65.3   7.9
Sonoma-West (Arnold) 5/2/26 1715 60.7   10.2 65   1 49.1   9.1 7.3   1.9 WSW | 242 16.0   6.9 0.00 0.00 45.3   3.8 67.6   5.1
Sonoma Valley HS 5/2/26 1715 62.0   7.6 69   1 51.9   7.6 4.9   1.4 WSW | 244 12.2   2.1 0.00 0.00 49.6   6.2 63.1   7.2
Sonoma East (Bundschu01) 5/2/26 1715 63.0   4.8 61   7 49.5   7.5 6.4   1.0 WSW | 252 12.5   1.1 0.00 0.00 48.6   5.9 64.3   6.9
Sonoma-SE (Napoli) 5/2/26 1715 63.2   4.9 59   6 48.6   7.5 7.2   2.1 WSW | 256 12.1   3.4 0.00 0.00 49.3   6.4 65.1   5.3
Schellville (Sasaki) 2/7/26 1900 53.4   2.2 88   10 49.9   1.0 3.3   1.8 SW | 225 5.8   4.0 0.00 0.00 47.0   0.8 62.8   8.4
Petaluma (Ranch 10) 5/2/26 1715 60.3   7.0 64   3 47.9   5.4 7.3   0.3 W | 271 11.8   0.3 0.00 0.00 52.3   7.4 64.1   11.8
Carneros (Ranch 71) 5/2/26 1715 61.8   4.0 63   7 48.9   6.5 11.0   7.4 WSW | 254 16.3   8.6 0.00 0.00 51.3   4.0 63.6   4.3
Ricci Vineyards (Carneros) 5/2/26 1715 63.3   4.0 61   5 49.9   6.0 7.8   2.5 WSW | 255 12.8   2.9 0.00 0.00 51.0   5.8 65.4   4.1
Carneros Upper (Ranch 81) 5/2/26 1715 61.8   4.1 63   4 49.1   5.6 11.7   5.4 WSW | 253 17.8   5.9 - - 52.1   3.9 64.2   5.5
Carneros Lower (Ranch 81) 5/2/26 1715 66.0   1.8 59   15 51.2   4.6 0.8   3.7 SW | 235 5.6   3.1 0.00 0.00 52.6   6.9 68.3   0.7
Max     66.0 84 51.9 11.7 - 17.8 0.00 0.00 52.6 68.4
Avg     59.8 68 49.5 5.9 - 11.6 0.00 - - -
Min     55.0 59 47.9 0.8 - 5.6 0.00 0.00 45.3 58.3

AQI Map

Map

Hourly Data